sensor_id;sensor_type;location;lat;lon;timestamp;P1;durP1;ratioP1;P2;durP2;ratioP2
45326;SDS011;31062;49.678;24.560;2023-12-14T00:01:33;23.20;;;11.60;;
45326;SDS011;31062;49.678;24.560;2023-12-14T00:04:19;21.70;;;9.35;;
45326;SDS011;31062;49.678;24.560;2023-12-14T00:07:05;15.10;;;8.48;;
45326;SDS011;31062;49.678;24.560;2023-12-14T00:09:51;13.90;;;7.82;;
45326;SDS011;31062;49.678;24.560;2023-12-14T00:12:36;18.20;;;8.90;;
45326;SDS011;31062;49.678;24.560;2023-12-14T00:15:22;11.95;;;8.02;;
45326;SDS011;31062;49.678;24.560;2023-12-14T00:18:09;13.23;;;8.65;;
45326;SDS011;31062;49.678;24.560;2023-12-14T00:20:55;19.60;;;9.43;;
45326;SDS011;31062;49.678;24.560;2023-12-14T00:23:41;13.82;;;8.60;;
45326;SDS011;31062;49.678;24.560;2023-12-14T00:26:27;15.57;;;9.35;;
45326;SDS011;31062;49.678;24.560;2023-12-14T00:29:13;17.52;;;9.02;;
45326;SDS011;31062;49.678;24.560;2023-12-14T00:31:59;21.42;;;8.77;;
45326;SDS011;31062;49.678;24.560;2023-12-14T00:34:45;23.40;;;10.98;;
45326;SDS011;31062;49.678;24.560;2023-12-14T00:37:31;25.63;;;10.93;;
45326;SDS011;31062;49.678;24.560;2023-12-14T00:40:17;24.63;;;10.10;;
45326;SDS011;31062;49.678;24.560;2023-12-14T00:43:02;16.50;;;8.80;;
45326;SDS011;31062;49.678;24.560;2023-12-14T00:45:48;17.67;;;8.65;;
45326;SDS011;31062;49.678;24.560;2023-12-14T00:48:34;17.95;;;9.13;;
45326;SDS011;31062;49.678;24.560;2023-12-14T00:51:20;16.23;;;8.18;;
45326;SDS011;31062;49.678;24.560;2023-12-14T00:54:06;20.20;;;10.43;;
45326;SDS011;31062;49.678;24.560;2023-12-14T00:56:51;25.00;;;10.95;;
45326;SDS011;31062;49.678;24.560;2023-12-14T00:59:37;50.92;;;16.25;;
45326;SDS011;31062;49.678;24.560;2023-12-14T01:02:43;38.33;;;14.48;;
45326;SDS011;31062;49.678;24.560;2023-12-14T01:05:50;42.08;;;15.93;;
45326;SDS011;31062;49.678;24.560;2023-12-14T01:08:56;33.50;;;13.30;;
45326;SDS011;31062;49.678;24.560;2023-12-14T01:12:02;24.40;;;12.20;;
45326;SDS011;31062;49.678;24.560;2023-12-14T01:15:08;21.30;;;10.55;;
45326;SDS011;31062;49.678;24.560;2023-12-14T01:17:54;18.52;;;11.63;;
45326;SDS011;31062;49.678;24.560;2023-12-14T01:20:42;19.85;;;10.73;;
45326;SDS011;31062;49.678;24.560;2023-12-14T01:23:28;24.30;;;11.50;;
45326;SDS011;31062;49.678;24.560;2023-12-14T01:26:13;28.30;;;10.68;;
45326;SDS011;31062;49.678;24.560;2023-12-14T01:28:59;26.13;;;10.88;;
45326;SDS011;31062;49.678;24.560;2023-12-14T01:31:45;21.88;;;11.10;;
45326;SDS011;31062;49.678;24.560;2023-12-14T01:34:31;20.30;;;10.85;;
45326;SDS011;31062;49.678;24.560;2023-12-14T01:37:36;20.80;;;9.88;;
45326;SDS011;31062;49.678;24.560;2023-12-14T01:40:42;15.65;;;8.48;;
45326;SDS011;31062;49.678;24.560;2023-12-14T01:43:47;11.10;;;6.93;;
45326;SDS011;31062;49.678;24.560;2023-12-14T01:46:54;15.88;;;8.85;;
45326;SDS011;31062;49.678;24.560;2023-12-14T01:50:00;16.13;;;10.50;;
45326;SDS011;31062;49.678;24.560;2023-12-14T01:53:06;15.23;;;8.30;;
45326;SDS011;31062;49.678;24.560;2023-12-14T01:56:11;21.73;;;12.43;;
45326;SDS011;31062;49.678;24.560;2023-12-14T01:59:18;16.85;;;10.57;;
45326;SDS011;31062;49.678;24.560;2023-12-14T02:02:23;19.88;;;11.40;;
45326;SDS011;31062;49.678;24.560;2023-12-14T02:05:29;15.32;;;9.82;;
45326;SDS011;31062;49.678;24.560;2023-12-14T02:08:36;18.52;;;10.38;;
45326;SDS011;31062;49.678;24.560;2023-12-14T02:11:41;24.23;;;12.55;;
45326;SDS011;31062;49.678;24.560;2023-12-14T02:14:48;18.30;;;10.85;;
45326;SDS011;31062;49.678;24.560;2023-12-14T02:17:55;15.98;;;9.23;;
45326;SDS011;31062;49.678;24.560;2023-12-14T02:21:01;15.85;;;9.32;;
45326;SDS011;31062;49.678;24.560;2023-12-14T02:24:07;25.13;;;11.05;;
45326;SDS011;31062;49.678;24.560;2023-12-14T02:27:12;18.55;;;10.68;;
45326;SDS011;31062;49.678;24.560;2023-12-14T02:30:18;18.00;;;10.02;;
45326;SDS011;31062;49.678;24.560;2023-12-14T02:33:24;18.63;;;10.52;;
45326;SDS011;31062;49.678;24.560;2023-12-14T02:36:29;24.17;;;11.38;;
45326;SDS011;31062;49.678;24.560;2023-12-14T02:39:35;16.17;;;9.90;;
45326;SDS011;31062;49.678;24.560;2023-12-14T02:42:42;14.55;;;9.20;;
45326;SDS011;31062;49.678;24.560;2023-12-14T02:45:47;12.25;;;8.05;;
45326;SDS011;31062;49.678;24.560;2023-12-14T02:48:53;11.77;;;7.57;;
45326;SDS011;31062;49.678;24.560;2023-12-14T02:51:59;13.15;;;7.43;;
45326;SDS011;31062;49.678;24.560;2023-12-14T02:55:04;8.95;;;5.85;;
45326;SDS011;31062;49.678;24.560;2023-12-14T02:58:10;9.23;;;6.15;;
45326;SDS011;31062;49.678;24.560;2023-12-14T03:01:18;8.80;;;6.22;;
45326;SDS011;31062;49.678;24.560;2023-12-14T03:04:25;8.60;;;5.90;;
45326;SDS011;31062;49.678;24.560;2023-12-14T03:07:31;11.07;;;7.70;;
45326;SDS011;31062;49.678;24.560;2023-12-14T03:10:36;10.70;;;6.50;;
45326;SDS011;31062;49.678;24.560;2023-12-14T03:13:43;11.65;;;7.07;;
45326;SDS011;31062;49.678;24.560;2023-12-14T03:16:48;10.20;;;6.03;;
45326;SDS011;31062;49.678;24.560;2023-12-14T03:19:55;8.85;;;5.13;;
45326;SDS011;31062;49.678;24.560;2023-12-14T03:23:00;8.63;;;5.53;;
45326;SDS011;31062;49.678;24.560;2023-12-14T03:26:06;9.35;;;5.55;;
45326;SDS011;31062;49.678;24.560;2023-12-14T03:29:13;7.63;;;4.85;;
45326;SDS011;31062;49.678;24.560;2023-12-14T03:32:18;8.30;;;5.63;;
45326;SDS011;31062;49.678;24.560;2023-12-14T03:35:25;9.48;;;6.70;;
45326;SDS011;31062;49.678;24.560;2023-12-14T03:38:31;7.13;;;4.78;;
45326;SDS011;31062;49.678;24.560;2023-12-14T03:41:37;8.73;;;5.07;;
45326;SDS011;31062;49.678;24.560;2023-12-14T03:44:43;7.68;;;5.30;;
45326;SDS011;31062;49.678;24.560;2023-12-14T03:47:49;6.78;;;5.00;;
45326;SDS011;31062;49.678;24.560;2023-12-14T03:50:54;6.70;;;4.85;;
45326;SDS011;31062;49.678;24.560;2023-12-14T03:54:00;12.18;;;4.43;;
45326;SDS011;31062;49.678;24.560;2023-12-14T03:57:07;7.00;;;4.22;;
45326;SDS011;31062;49.678;24.560;2023-12-14T04:00:13;5.72;;;4.55;;
45326;SDS011;31062;49.678;24.560;2023-12-14T04:02:59;4.72;;;3.47;;
45326;SDS011;31062;49.678;24.560;2023-12-14T04:05:45;3.63;;;3.08;;
45326;SDS011;31062;49.678;24.560;2023-12-14T04:08:31;4.15;;;3.50;;
45326;SDS011;31062;49.678;24.560;2023-12-14T04:11:17;2.97;;;2.67;;
45326;SDS011;31062;49.678;24.560;2023-12-14T04:14:04;2.67;;;2.47;;
45326;SDS011;31062;49.678;24.560;2023-12-14T04:16:49;2.30;;;2.10;;
45326;SDS011;31062;49.678;24.560;2023-12-14T04:19:35;2.17;;;1.92;;
45326;SDS011;31062;49.678;24.560;2023-12-14T04:22:23;1.90;;;1.75;;
45326;SDS011;31062;49.678;24.560;2023-12-14T04:25:08;2.28;;;2.08;;
45326;SDS011;31062;49.678;24.560;2023-12-14T04:27:54;3.08;;;2.40;;
45326;SDS011;31062;49.678;24.560;2023-12-14T04:30:40;3.80;;;2.95;;
45326;SDS011;31062;49.678;24.560;2023-12-14T04:33:26;4.20;;;2.90;;
45326;SDS011;31062;49.678;24.560;2023-12-14T04:36:12;11.90;;;4.28;;
45326;SDS011;31062;49.678;24.560;2023-12-14T04:38:57;11.00;;;5.55;;
45326;SDS011;31062;49.678;24.560;2023-12-14T04:41:44;42.40;;;9.18;;
45326;SDS011;31062;49.678;24.560;2023-12-14T04:44:30;17.40;;;6.28;;
45326;SDS011;31062;49.678;24.560;2023-12-14T04:47:16;21.77;;;6.20;;
45326;SDS011;31062;49.678;24.560;2023-12-14T04:50:02;21.92;;;7.18;;
45326;SDS011;31062;49.678;24.560;2023-12-14T04:52:48;20.15;;;7.72;;
45326;SDS011;31062;49.678;24.560;2023-12-14T04:55:34;23.17;;;9.30;;
45326;SDS011;31062;49.678;24.560;2023-12-14T04:58:19;13.65;;;5.50;;
45326;SDS011;31062;49.678;24.560;2023-12-14T05:01:07;12.23;;;6.28;;
45326;SDS011;31062;49.678;24.560;2023-12-14T05:03:53;8.93;;;5.28;;
45326;SDS011;31062;49.678;24.560;2023-12-14T05:06:39;6.18;;;4.55;;
45326;SDS011;31062;49.678;24.560;2023-12-14T05:09:26;5.55;;;3.90;;
45326;SDS011;31062;49.678;24.560;2023-12-14T05:12:12;9.77;;;5.57;;
45326;SDS011;31062;49.678;24.560;2023-12-14T05:14:58;9.75;;;5.30;;
45326;SDS011;31062;49.678;24.560;2023-12-14T05:17:45;8.18;;;5.55;;
45326;SDS011;31062;49.678;24.560;2023-12-14T05:20:31;13.63;;;5.78;;
45326;SDS011;31062;49.678;24.560;2023-12-14T05:23:17;17.00;;;6.32;;
45326;SDS011;31062;49.678;24.560;2023-12-14T05:26:03;10.45;;;5.47;;
45326;SDS011;31062;49.678;24.560;2023-12-14T05:28:48;17.33;;;8.68;;
45326;SDS011;31062;49.678;24.560;2023-12-14T05:31:35;11.93;;;6.53;;
45326;SDS011;31062;49.678;24.560;2023-12-14T05:34:20;10.00;;;4.47;;
45326;SDS011;31062;49.678;24.560;2023-12-14T05:37:06;5.95;;;3.35;;
45326;SDS011;31062;49.678;24.560;2023-12-14T05:39:53;4.57;;;3.15;;
45326;SDS011;31062;49.678;24.560;2023-12-14T05:42:39;5.93;;;3.60;;
45326;SDS011;31062;49.678;24.560;2023-12-14T05:45:25;5.43;;;3.70;;
45326;SDS011;31062;49.678;24.560;2023-12-14T05:48:10;4.47;;;3.70;;
45326;SDS011;31062;49.678;24.560;2023-12-14T05:50:57;7.38;;;4.90;;
45326;SDS011;31062;49.678;24.560;2023-12-14T05:53:42;9.77;;;4.72;;
45326;SDS011;31062;49.678;24.560;2023-12-14T05:56:28;8.80;;;5.07;;
45326;SDS011;31062;49.678;24.560;2023-12-14T05:59:14;9.18;;;5.28;;
45326;SDS011;31062;49.678;24.560;2023-12-14T06:02:00;12.90;;;4.50;;
45326;SDS011;31062;49.678;24.560;2023-12-14T06:04:46;8.95;;;4.68;;
45326;SDS011;31062;49.678;24.560;2023-12-14T06:07:32;12.55;;;5.65;;
45326;SDS011;31062;49.678;24.560;2023-12-14T06:10:38;6.13;;;4.03;;
45326;SDS011;31062;49.678;24.560;2023-12-14T06:13:44;4.32;;;3.00;;
45326;SDS011;31062;49.678;24.560;2023-12-14T06:16:50;8.30;;;4.35;;
45326;SDS011;31062;49.678;24.560;2023-12-14T06:19:55;6.57;;;4.07;;
45326;SDS011;31062;49.678;24.560;2023-12-14T06:23:01;6.13;;;3.40;;
45326;SDS011;31062;49.678;24.560;2023-12-14T06:26:07;5.90;;;3.15;;
45326;SDS011;31062;49.678;24.560;2023-12-14T06:29:13;7.93;;;4.40;;
45326;SDS011;31062;49.678;24.560;2023-12-14T06:32:18;7.45;;;3.50;;
45326;SDS011;31062;49.678;24.560;2023-12-14T06:35:25;5.03;;;2.72;;
45326;SDS011;31062;49.678;24.560;2023-12-14T06:38:30;12.75;;;5.07;;
45326;SDS011;31062;49.678;24.560;2023-12-14T06:41:36;4.78;;;3.00;;
45326;SDS011;31062;49.678;24.560;2023-12-14T06:44:42;7.13;;;3.83;;
45326;SDS011;31062;49.678;24.560;2023-12-14T06:47:48;5.30;;;3.60;;
45326;SDS011;31062;49.678;24.560;2023-12-14T06:50:54;6.47;;;3.67;;
45326;SDS011;31062;49.678;24.560;2023-12-14T06:54:01;5.53;;;3.50;;
45326;SDS011;31062;49.678;24.560;2023-12-14T06:57:06;6.43;;;2.80;;
45326;SDS011;31062;49.678;24.560;2023-12-14T06:59:52;6.10;;;3.50;;
45326;SDS011;31062;49.678;24.560;2023-12-14T07:02:38;4.82;;;3.08;;
45326;SDS011;31062;49.678;24.560;2023-12-14T07:05:45;3.20;;;2.70;;
45326;SDS011;31062;49.678;24.560;2023-12-14T07:08:50;13.30;;;5.13;;
45326;SDS011;31062;49.678;24.560;2023-12-14T07:11:37;18.10;;;5.80;;
45326;SDS011;31062;49.678;24.560;2023-12-14T07:14:23;13.27;;;7.65;;
45326;SDS011;31062;49.678;24.560;2023-12-14T07:17:10;17.52;;;6.95;;
45326;SDS011;31062;49.678;24.560;2023-12-14T07:19:56;25.67;;;10.38;;
45326;SDS011;31062;49.678;24.560;2023-12-14T07:23:02;58.55;;;19.67;;
45326;SDS011;31062;49.678;24.560;2023-12-14T07:26:07;44.15;;;17.38;;
45326;SDS011;31062;49.678;24.560;2023-12-14T07:29:14;24.63;;;11.27;;
45326;SDS011;31062;49.678;24.560;2023-12-14T07:31:59;18.05;;;8.23;;
45326;SDS011;31062;49.678;24.560;2023-12-14T07:34:45;19.17;;;6.20;;
45326;SDS011;31062;49.678;24.560;2023-12-14T07:37:50;15.00;;;6.68;;
45326;SDS011;31062;49.678;24.560;2023-12-14T07:40:57;8.40;;;6.38;;
45326;SDS011;31062;49.678;24.560;2023-12-14T07:43:43;17.63;;;8.82;;
45326;SDS011;31062;49.678;24.560;2023-12-14T07:46:29;21.45;;;9.50;;
45326;SDS011;31062;49.678;24.560;2023-12-14T07:49:14;26.90;;;9.07;;
45326;SDS011;31062;49.678;24.560;2023-12-14T07:52:21;27.30;;;11.15;;
45326;SDS011;31062;49.678;24.560;2023-12-14T07:55:27;25.83;;;9.32;;
45326;SDS011;31062;49.678;24.560;2023-12-14T07:58:14;11.82;;;7.75;;
45326;SDS011;31062;49.678;24.560;2023-12-14T08:01:20;17.92;;;8.13;;
45326;SDS011;31062;49.678;24.560;2023-12-14T08:04:06;13.90;;;7.85;;
45326;SDS011;31062;49.678;24.560;2023-12-14T08:07:12;15.50;;;8.30;;
45326;SDS011;31062;49.678;24.560;2023-12-14T08:09:58;29.45;;;13.98;;
45326;SDS011;31062;49.678;24.560;2023-12-14T08:13:04;24.75;;;12.48;;
45326;SDS011;31062;49.678;24.560;2023-12-14T08:16:10;21.48;;;11.25;;
45326;SDS011;31062;49.678;24.560;2023-12-14T08:18:59;21.08;;;10.70;;
45326;SDS011;31062;49.678;24.560;2023-12-14T08:21:45;27.15;;;13.25;;
45326;SDS011;31062;49.678;24.560;2023-12-14T08:24:32;23.83;;;11.52;;
45326;SDS011;31062;49.678;24.560;2023-12-14T08:27:18;18.92;;;9.70;;
45326;SDS011;31062;49.678;24.560;2023-12-14T08:30:03;14.27;;;8.70;;
45326;SDS011;31062;49.678;24.560;2023-12-14T08:32:50;14.63;;;7.45;;
45326;SDS011;31062;49.678;24.560;2023-12-14T08:35:36;17.48;;;8.93;;
45326;SDS011;31062;49.678;24.560;2023-12-14T08:38:22;14.32;;;8.38;;
45326;SDS011;31062;49.678;24.560;2023-12-14T08:41:07;18.83;;;9.18;;
45326;SDS011;31062;49.678;24.560;2023-12-14T08:43:56;16.65;;;7.97;;
45326;SDS011;31062;49.678;24.560;2023-12-14T08:46:44;15.65;;;7.63;;
45326;SDS011;31062;49.678;24.560;2023-12-14T08:49:51;15.98;;;8.75;;
45326;SDS011;31062;49.678;24.560;2023-12-14T08:52:57;18.65;;;8.15;;
45326;SDS011;31062;49.678;24.560;2023-12-14T08:56:03;13.77;;;7.13;;
45326;SDS011;31062;49.678;24.560;2023-12-14T08:59:09;28.33;;;11.93;;
45326;SDS011;31062;49.678;24.560;2023-12-14T09:01:55;21.48;;;10.27;;
45326;SDS011;31062;49.678;24.560;2023-12-14T09:04:41;19.58;;;9.38;;
45326;SDS011;31062;49.678;24.560;2023-12-14T09:07:27;12.52;;;6.80;;
45326;SDS011;31062;49.678;24.560;2023-12-14T09:10:13;16.40;;;8.15;;
45326;SDS011;31062;49.678;24.560;2023-12-14T09:13:19;17.75;;;8.20;;
45326;SDS011;31062;49.678;24.560;2023-12-14T09:16:26;21.65;;;9.73;;
45326;SDS011;31062;49.678;24.560;2023-12-14T09:19:12;12.27;;;7.88;;
45326;SDS011;31062;49.678;24.560;2023-12-14T09:21:59;13.82;;;7.93;;
45326;SDS011;31062;49.678;24.560;2023-12-14T09:25:06;8.55;;;5.03;;
45326;SDS011;31062;49.678;24.560;2023-12-14T09:28:13;15.35;;;9.18;;
45326;SDS011;31062;49.678;24.560;2023-12-14T09:31:18;14.10;;;7.85;;
45326;SDS011;31062;49.678;24.560;2023-12-14T09:34:26;13.55;;;7.63;;
45326;SDS011;31062;49.678;24.560;2023-12-14T09:37:11;22.15;;;12.65;;
45326;SDS011;31062;49.678;24.560;2023-12-14T09:39:59;13.55;;;9.52;;
45326;SDS011;31062;49.678;24.560;2023-12-14T09:43:06;17.92;;;9.75;;
45326;SDS011;31062;49.678;24.560;2023-12-14T09:46:12;16.00;;;9.50;;
45326;SDS011;31062;49.678;24.560;2023-12-14T09:49:19;10.93;;;7.88;;
45326;SDS011;31062;49.678;24.560;2023-12-14T09:52:06;13.55;;;8.88;;
45326;SDS011;31062;49.678;24.560;2023-12-14T09:54:51;11.73;;;8.07;;
45326;SDS011;31062;49.678;24.560;2023-12-14T09:57:41;13.70;;;9.48;;
45326;SDS011;31062;49.678;24.560;2023-12-14T10:00:33;24.40;;;12.57;;
45326;SDS011;31062;49.678;24.560;2023-12-14T10:03:27;9.68;;;6.82;;
45326;SDS011;31062;49.678;24.560;2023-12-14T10:06:14;17.08;;;9.82;;
45326;SDS011;31062;49.678;24.560;2023-12-14T10:09:22;10.75;;;7.82;;
45326;SDS011;31062;49.678;24.560;2023-12-14T10:12:29;8.75;;;5.75;;
45326;SDS011;31062;49.678;24.560;2023-12-14T10:15:41;10.20;;;5.88;;
45326;SDS011;31062;49.678;24.560;2023-12-14T10:18:51;7.70;;;5.55;;
45326;SDS011;31062;49.678;24.560;2023-12-14T10:21:57;9.60;;;6.82;;
45326;SDS011;31062;49.678;24.560;2023-12-14T10:25:03;9.10;;;4.78;;
45326;SDS011;31062;49.678;24.560;2023-12-14T10:28:13;7.35;;;5.07;;
45326;SDS011;31062;49.678;24.560;2023-12-14T10:31:19;7.53;;;3.90;;
45326;SDS011;31062;49.678;24.560;2023-12-14T10:34:26;12.95;;;5.57;;
45326;SDS011;31062;49.678;24.560;2023-12-14T10:37:31;9.80;;;5.15;;
45326;SDS011;31062;49.678;24.560;2023-12-14T10:40:42;5.85;;;4.15;;
45326;SDS011;31062;49.678;24.560;2023-12-14T10:43:50;6.90;;;4.70;;
45326;SDS011;31062;49.678;24.560;2023-12-14T10:46:58;4.93;;;2.63;;
45326;SDS011;31062;49.678;24.560;2023-12-14T10:49:49;6.25;;;3.75;;
45326;SDS011;31062;49.678;24.560;2023-12-14T10:52:36;5.50;;;3.85;;
45326;SDS011;31062;49.678;24.560;2023-12-14T10:55:26;4.65;;;3.80;;
45326;SDS011;31062;49.678;24.560;2023-12-14T10:58:16;5.88;;;4.38;;
45326;SDS011;31062;49.678;24.560;2023-12-14T11:01:05;5.68;;;4.05;;
45326;SDS011;31062;49.678;24.560;2023-12-14T11:03:54;7.30;;;3.97;;
45326;SDS011;31062;49.678;24.560;2023-12-14T11:06:45;5.22;;;4.00;;
45326;SDS011;31062;49.678;24.560;2023-12-14T11:09:51;5.20;;;3.90;;
45326;SDS011;31062;49.678;24.560;2023-12-14T11:13:01;7.07;;;4.50;;
45326;SDS011;31062;49.678;24.560;2023-12-14T11:16:08;4.80;;;3.53;;
45326;SDS011;31062;49.678;24.560;2023-12-14T11:22:33;5.22;;;4.68;;
45326;SDS011;31062;49.678;24.560;2023-12-14T11:25:42;7.85;;;5.50;;
45326;SDS011;31062;49.678;24.560;2023-12-14T11:28:47;7.43;;;5.57;;
45326;SDS011;31062;49.678;24.560;2023-12-14T11:31:53;5.18;;;3.80;;
45326;SDS011;31062;49.678;24.560;2023-12-14T11:34:59;7.10;;;4.88;;
45326;SDS011;31062;49.678;24.560;2023-12-14T11:38:05;3.38;;;3.00;;
45326;SDS011;31062;49.678;24.560;2023-12-14T11:41:11;5.95;;;3.65;;
45326;SDS011;31062;49.678;24.560;2023-12-14T11:44:22;5.10;;;4.10;;
45326;SDS011;31062;49.678;24.560;2023-12-14T11:47:30;4.90;;;4.20;;
45326;SDS011;31062;49.678;24.560;2023-12-14T11:50:15;5.47;;;3.83;;
45326;SDS011;31062;49.678;24.560;2023-12-14T11:53:02;3.70;;;3.38;;
45326;SDS011;31062;49.678;24.560;2023-12-14T11:55:48;4.90;;;3.10;;
45326;SDS011;31062;49.678;24.560;2023-12-14T11:58:34;6.00;;;4.82;;
45326;SDS011;31062;49.678;24.560;2023-12-14T12:01:20;4.10;;;3.50;;
45326;SDS011;31062;49.678;24.560;2023-12-14T12:04:09;3.90;;;3.05;;
45326;SDS011;31062;49.678;24.560;2023-12-14T12:07:15;5.07;;;3.67;;
45326;SDS011;31062;49.678;24.560;2023-12-14T12:10:23;6.07;;;2.72;;
45326;SDS011;31062;49.678;24.560;2023-12-14T12:13:11;5.90;;;3.58;;
45326;SDS011;31062;49.678;24.560;2023-12-14T12:16:22;6.18;;;3.50;;
45326;SDS011;31062;49.678;24.560;2023-12-14T12:19:09;4.80;;;3.75;;
45326;SDS011;31062;49.678;24.560;2023-12-14T12:21:55;5.82;;;3.42;;
45326;SDS011;31062;49.678;24.560;2023-12-14T12:24:45;5.32;;;3.75;;
45326;SDS011;31062;49.678;24.560;2023-12-14T12:28:01;6.03;;;3.83;;
45326;SDS011;31062;49.678;24.560;2023-12-14T12:31:08;12.45;;;6.55;;
45326;SDS011;31062;49.678;24.560;2023-12-14T12:34:13;8.60;;;5.43;;
45326;SDS011;31062;49.678;24.560;2023-12-14T12:37:19;10.90;;;5.40;;
45326;SDS011;31062;49.678;24.560;2023-12-14T12:40:25;9.63;;;5.45;;
45326;SDS011;31062;49.678;24.560;2023-12-14T12:43:32;8.40;;;5.05;;
45326;SDS011;31062;49.678;24.560;2023-12-14T12:46:37;11.82;;;6.03;;
45326;SDS011;31062;49.678;24.560;2023-12-14T12:49:55;11.18;;;5.47;;
45326;SDS011;31062;49.678;24.560;2023-12-14T12:53:01;13.25;;;6.10;;
45326;SDS011;31062;49.678;24.560;2023-12-14T12:56:07;9.52;;;4.28;;
45326;SDS011;31062;49.678;24.560;2023-12-14T12:59:13;10.18;;;5.72;;
45326;SDS011;31062;49.678;24.560;2023-12-14T13:02:18;10.25;;;5.68;;
45326;SDS011;31062;49.678;24.560;2023-12-14T13:05:24;10.95;;;5.45;;
45326;SDS011;31062;49.678;24.560;2023-12-14T13:08:29;19.77;;;8.27;;
45326;SDS011;31062;49.678;24.560;2023-12-14T13:11:35;11.93;;;6.65;;
45326;SDS011;31062;49.678;24.560;2023-12-14T13:14:41;10.88;;;5.50;;
45326;SDS011;31062;49.678;24.560;2023-12-14T13:17:46;8.60;;;5.32;;
45326;SDS011;31062;49.678;24.560;2023-12-14T13:20:52;10.48;;;5.68;;
45326;SDS011;31062;49.678;24.560;2023-12-14T13:23:58;20.50;;;8.68;;
45326;SDS011;31062;49.678;24.560;2023-12-14T13:27:04;39.83;;;7.63;;
45326;SDS011;31062;49.678;24.560;2023-12-14T13:30:09;7.70;;;4.75;;
45326;SDS011;31062;49.678;24.560;2023-12-14T13:33:15;6.43;;;4.95;;
45326;SDS011;31062;49.678;24.560;2023-12-14T13:36:21;6.18;;;4.57;;
45326;SDS011;31062;49.678;24.560;2023-12-14T13:39:28;7.72;;;5.65;;
45326;SDS011;31062;49.678;24.560;2023-12-14T13:42:33;8.20;;;4.97;;
45326;SDS011;31062;49.678;24.560;2023-12-14T13:45:51;7.00;;;5.10;;
45326;SDS011;31062;49.678;24.560;2023-12-14T13:49:06;8.23;;;5.35;;
45326;SDS011;31062;49.678;24.560;2023-12-14T13:52:12;10.93;;;6.80;;
45326;SDS011;31062;49.678;24.560;2023-12-14T13:55:18;8.77;;;4.95;;
45326;SDS011;31062;49.678;24.560;2023-12-14T13:58:24;7.03;;;4.78;;
45326;SDS011;31062;49.678;24.560;2023-12-14T14:01:30;6.70;;;4.53;;
45326;SDS011;31062;49.678;24.560;2023-12-14T14:04:36;4.57;;;3.80;;
45326;SDS011;31062;49.678;24.560;2023-12-14T14:07:43;6.38;;;5.28;;
45326;SDS011;31062;49.678;24.560;2023-12-14T14:10:50;5.22;;;4.10;;
45326;SDS011;31062;49.678;24.560;2023-12-14T14:13:55;5.72;;;3.75;;
45326;SDS011;31062;49.678;24.560;2023-12-14T14:17:01;5.07;;;4.15;;
45326;SDS011;31062;49.678;24.560;2023-12-14T14:20:07;8.40;;;5.57;;
45326;SDS011;31062;49.678;24.560;2023-12-14T14:23:14;5.22;;;3.45;;
45326;SDS011;31062;49.678;24.560;2023-12-14T14:26:19;4.30;;;3.78;;
45326;SDS011;31062;49.678;24.560;2023-12-14T14:29:25;6.13;;;4.68;;
45326;SDS011;31062;49.678;24.560;2023-12-14T14:32:31;7.35;;;4.85;;
45326;SDS011;31062;49.678;24.560;2023-12-14T14:35:37;8.30;;;5.18;;
45326;SDS011;31062;49.678;24.560;2023-12-14T14:38:24;10.25;;;6.18;;
45326;SDS011;31062;49.678;24.560;2023-12-14T14:41:29;5.57;;;4.43;;
45326;SDS011;31062;49.678;24.560;2023-12-14T14:44:35;7.63;;;4.95;;
45326;SDS011;31062;49.678;24.560;2023-12-14T14:47:41;10.80;;;6.68;;
45326;SDS011;31062;49.678;24.560;2023-12-14T14:50:47;12.55;;;7.28;;
45326;SDS011;31062;49.678;24.560;2023-12-14T14:53:54;8.95;;;6.18;;
45326;SDS011;31062;49.678;24.560;2023-12-14T14:57:00;13.65;;;7.95;;
45326;SDS011;31062;49.678;24.560;2023-12-14T15:00:06;11.23;;;6.60;;
45326;SDS011;31062;49.678;24.560;2023-12-14T15:03:12;13.10;;;7.47;;
45326;SDS011;31062;49.678;24.560;2023-12-14T15:06:17;12.77;;;8.15;;
45326;SDS011;31062;49.678;24.560;2023-12-14T15:09:23;8.65;;;5.75;;
45326;SDS011;31062;49.678;24.560;2023-12-14T15:12:29;14.85;;;7.88;;
45326;SDS011;31062;49.678;24.560;2023-12-14T15:15:35;17.70;;;8.73;;
45326;SDS011;31062;49.678;24.560;2023-12-14T15:18:21;10.80;;;7.43;;
45326;SDS011;31062;49.678;24.560;2023-12-14T15:21:08;9.10;;;6.50;;
45326;SDS011;31062;49.678;24.560;2023-12-14T15:23:56;10.25;;;6.50;;
45326;SDS011;31062;49.678;24.560;2023-12-14T15:26:43;10.77;;;5.97;;
45326;SDS011;31062;49.678;24.560;2023-12-14T15:29:51;16.30;;;7.72;;
45326;SDS011;31062;49.678;24.560;2023-12-14T15:32:58;13.30;;;7.78;;
45326;SDS011;31062;49.678;24.560;2023-12-14T15:35:43;22.20;;;10.60;;
45326;SDS011;31062;49.678;24.560;2023-12-14T15:38:49;17.73;;;9.13;;
45326;SDS011;31062;49.678;24.560;2023-12-14T15:41:55;14.80;;;7.45;;
45326;SDS011;31062;49.678;24.560;2023-12-14T15:45:00;7.75;;;5.28;;
45326;SDS011;31062;49.678;24.560;2023-12-14T15:48:06;13.80;;;8.25;;
45326;SDS011;31062;49.678;24.560;2023-12-14T15:50:52;16.83;;;8.68;;
45326;SDS011;31062;49.678;24.560;2023-12-14T15:53:38;18.92;;;8.10;;
45326;SDS011;31062;49.678;24.560;2023-12-14T15:56:44;11.00;;;6.75;;
45326;SDS011;31062;49.678;24.560;2023-12-14T15:59:50;16.67;;;8.05;;
45326;SDS011;31062;49.678;24.560;2023-12-14T16:02:56;17.50;;;8.93;;
45326;SDS011;31062;49.678;24.560;2023-12-14T16:05:41;11.68;;;7.18;;
45326;SDS011;31062;49.678;24.560;2023-12-14T16:08:48;11.00;;;6.88;;
45326;SDS011;31062;49.678;24.560;2023-12-14T16:14:36;19.95;;;9.30;;
45326;SDS011;31062;49.678;24.560;2023-12-14T16:17:43;20.17;;;10.55;;
45326;SDS011;31062;49.678;24.560;2023-12-14T16:20:49;15.07;;;9.32;;
45326;SDS011;31062;49.678;24.560;2023-12-14T16:23:55;14.18;;;8.23;;
45326;SDS011;31062;49.678;24.560;2023-12-14T16:27:00;20.92;;;9.27;;
45326;SDS011;31062;49.678;24.560;2023-12-14T16:30:06;22.85;;;10.73;;
45326;SDS011;31062;49.678;24.560;2023-12-14T16:32:52;15.07;;;9.30;;
45326;SDS011;31062;49.678;24.560;2023-12-14T16:35:58;16.17;;;9.00;;
45326;SDS011;31062;49.678;24.560;2023-12-14T16:39:04;12.48;;;8.13;;
45326;SDS011;31062;49.678;24.560;2023-12-14T16:42:10;14.60;;;7.78;;
45326;SDS011;31062;49.678;24.560;2023-12-14T16:45:17;12.23;;;7.03;;
45326;SDS011;31062;49.678;24.560;2023-12-14T16:48:02;12.70;;;8.05;;
45326;SDS011;31062;49.678;24.560;2023-12-14T16:51:08;11.05;;;6.22;;
45326;SDS011;31062;49.678;24.560;2023-12-14T16:54:14;8.07;;;5.82;;
45326;SDS011;31062;49.678;24.560;2023-12-14T16:57:20;7.93;;;5.47;;
45326;SDS011;31062;49.678;24.560;2023-12-14T17:00:26;7.45;;;5.50;;
45326;SDS011;31062;49.678;24.560;2023-12-14T17:03:32;10.60;;;6.53;;
45326;SDS011;31062;49.678;24.560;2023-12-14T17:06:37;8.50;;;5.13;;
45326;SDS011;31062;49.678;24.560;2023-12-14T17:09:44;6.60;;;4.78;;
45326;SDS011;31062;49.678;24.560;2023-12-14T17:12:49;9.60;;;4.95;;
45326;SDS011;31062;49.678;24.560;2023-12-14T17:15:55;9.02;;;5.32;;
45326;SDS011;31062;49.678;24.560;2023-12-14T17:19:00;9.80;;;5.82;;
45326;SDS011;31062;49.678;24.560;2023-12-14T17:22:07;22.80;;;9.05;;
45326;SDS011;31062;49.678;24.560;2023-12-14T17:25:12;13.40;;;7.47;;
45326;SDS011;31062;49.678;24.560;2023-12-14T17:28:18;22.17;;;11.40;;
45326;SDS011;31062;49.678;24.560;2023-12-14T17:31:25;15.38;;;9.45;;
45326;SDS011;31062;49.678;24.560;2023-12-14T17:34:11;22.88;;;11.70;;